sensor_id;sensor_type;location;lat;lon;timestamp;pressure;altitude;pressure_sealevel;temperature;humidity
58245;BME280;44550;43.864;25.986;2023-01-30T00:00:00;101639.19;;;-0.01;100.00
58245;BME280;44550;43.864;25.986;2023-01-30T00:04:16;101635.34;;;-0.07;100.00
58245;BME280;44550;43.864;25.986;2023-01-30T00:08:29;101627.53;;;-0.09;100.00
58245;BME280;44550;43.864;25.986;2023-01-30T00:12:44;101592.25;;;-0.25;100.00
58245;BME280;44550;43.864;25.986;2023-01-30T00:16:47;101627.34;;;-0.12;100.00
58245;BME280;44550;43.864;25.986;2023-01-30T00:21:01;101623.28;;;-0.08;100.00
58245;BME280;44550;43.864;25.986;2023-01-30T00:25:16;101618.94;;;-0.09;100.00
58245;BME280;44550;43.864;25.986;2023-01-30T00:29:23;101621.41;;;-0.11;100.00
58245;BME280;44550;43.864;25.986;2023-01-30T00:33:54;101596.22;;;-0.30;100.00
58245;BME280;44550;43.864;25.986;2023-01-30T00:38:15;101607.59;;;-0.13;100.00
58245;BME280;44550;43.864;25.986;2023-01-30T00:42:20;101611.81;;;-0.13;100.00
58245;BME280;44550;43.864;25.986;2023-01-30T00:46:42;101614.56;;;-0.10;100.00
58245;BME280;44550;43.864;25.986;2023-01-30T00:51:27;101606.31;;;-0.19;100.00
58245;BME280;44550;43.864;25.986;2023-01-30T00:55:29;101599.88;;;-0.13;100.00
58245;BME280;44550;43.864;25.986;2023-01-30T00:59:59;101573.78;;;-0.32;100.00
58245;BME280;44550;43.864;25.986;2023-01-30T01:04:10;101587.91;;;-0.26;100.00
58245;BME280;44550;43.864;25.986;2023-01-30T01:12:54;101555.81;;;-0.32;100.00
58245;BME280;44550;43.864;25.986;2023-01-30T01:17:10;101584.25;;;-0.16;100.00
58245;BME280;44550;43.864;25.986;2023-01-30T01:21:12;101576.75;;;-0.13;100.00
58245;BME280;44550;43.864;25.986;2023-01-30T01:25:18;101564.56;;;-0.15;100.00
58245;BME280;44550;43.864;25.986;2023-01-30T01:29:23;101571.25;;;-0.04;100.00
58245;BME280;44550;43.864;25.986;2023-01-30T01:33:37;101507.38;;;-0.39;100.00
58245;BME280;44550;43.864;25.986;2023-01-30T01:37:47;101567.50;;;0.04;100.00
58245;BME280;44550;43.864;25.986;2023-01-30T01:41:59;101567.41;;;0.03;100.00
58245;BME280;44550;43.864;25.986;2023-01-30T01:46:07;101564.06;;;0.04;100.00
58245;BME280;44550;43.864;25.986;2023-01-30T01:50:26;101560.41;;;0.00;100.00
58245;BME280;44550;43.864;25.986;2023-01-30T01:54:38;101522.38;;;-0.19;100.00
58245;BME280;44550;43.864;25.986;2023-01-30T01:58:50;101556.53;;;-0.07;100.00
58245;BME280;44550;43.864;25.986;2023-01-30T02:03:04;101539.66;;;-0.03;100.00
58245;BME280;44550;43.864;25.986;2023-01-30T02:07:14;101548.63;;;0.04;100.00
58245;BME280;44550;43.864;25.986;2023-01-30T02:11:29;101540.63;;;-0.01;100.00
58245;BME280;44550;43.864;25.986;2023-01-30T02:15:34;101512.88;;;-0.20;100.00
58245;BME280;44550;43.864;25.986;2023-01-30T02:19:48;101543.19;;;-0.01;100.00
58245;BME280;44550;43.864;25.986;2023-01-30T02:24:30;101507.53;;;-0.10;100.00
58245;BME280;44550;43.864;25.986;2023-01-30T02:29:18;101535.28;;;-0.04;100.00
58245;BME280;44550;43.864;25.986;2023-01-30T02:33:33;101526.38;;;0.04;100.00
58245;BME280;44550;43.864;25.986;2023-01-30T02:37:52;101487.84;;;-0.09;100.00
58245;BME280;44550;43.864;25.986;2023-01-30T02:42:13;101516.34;;;0.09;100.00
58245;BME280;44550;43.864;25.986;2023-01-30T02:46:30;101491.44;;;0.08;100.00
58245;BME280;44550;43.864;25.986;2023-01-30T02:50:52;101523.00;;;0.33;100.00
58245;BME280;44550;43.864;25.986;2023-01-30T02:55:15;101502.44;;;0.48;100.00
58245;BME280;44550;43.864;25.986;2023-01-30T02:59:38;101521.06;;;0.44;100.00
58245;BME280;44550;43.864;25.986;2023-01-30T03:09:05;101516.19;;;0.34;100.00
58245;BME280;44550;43.864;25.986;2023-01-30T03:18:15;101513.91;;;0.68;100.00
58245;BME280;44550;43.864;25.986;2023-01-30T03:22:33;101519.50;;;0.76;100.00
58245;BME280;44550;43.864;25.986;2023-01-30T03:26:49;101511.78;;;0.76;100.00
58245;BME280;44550;43.864;25.986;2023-01-30T03:30:54;101512.00;;;0.36;100.00
58245;BME280;44550;43.864;25.986;2023-01-30T03:35:04;101513.72;;;0.50;100.00
58245;BME280;44550;43.864;25.986;2023-01-30T03:39:09;101504.25;;;0.64;100.00
58245;BME280;44550;43.864;25.986;2023-01-30T03:43:53;101505.94;;;0.78;100.00
58245;BME280;44550;43.864;25.986;2023-01-30T03:48:15;101502.56;;;1.09;100.00
58245;BME280;44550;43.864;25.986;2023-01-30T03:52:22;101501.91;;;1.28;100.00
58245;BME280;44550;43.864;25.986;2023-01-30T03:56:30;101489.25;;;1.47;100.00
58245;BME280;44550;43.864;25.986;2023-01-30T04:00:39;101492.69;;;1.62;100.00
58245;BME280;44550;43.864;25.986;2023-01-30T04:04:52;101491.44;;;1.87;100.00
58245;BME280;44550;43.864;25.986;2023-01-30T04:09:05;101483.72;;;1.87;100.00
58245;BME280;44550;43.864;25.986;2023-01-30T04:13:20;101478.38;;;1.84;100.00
58245;BME280;44550;43.864;25.986;2023-01-30T04:17:27;101463.13;;;1.72;100.00
58245;BME280;44550;43.864;25.986;2023-01-30T04:21:38;101477.50;;;1.52;100.00
58245;BME280;44550;43.864;25.986;2023-01-30T04:25:40;101471.41;;;1.50;100.00
58245;BME280;44550;43.864;25.986;2023-01-30T04:29:43;101469.16;;;1.56;100.00
58245;BME280;44550;43.864;25.986;2023-01-30T04:33:48;101470.78;;;1.71;100.00
58245;BME280;44550;43.864;25.986;2023-01-30T04:37:53;101461.47;;;1.73;100.00
58245;BME280;44550;43.864;25.986;2023-01-30T04:41:58;101477.31;;;1.64;100.00
58245;BME280;44550;43.864;25.986;2023-01-30T04:46:04;101472.03;;;1.46;100.00
58245;BME280;44550;43.864;25.986;2023-01-30T04:50:20;101469.81;;;1.37;100.00
58245;BME280;44550;43.864;25.986;2023-01-30T04:54:26;101478.38;;;1.22;100.00
58245;BME280;44550;43.864;25.986;2023-01-30T04:58:33;101483.72;;;1.25;100.00
58245;BME280;44550;43.864;25.986;2023-01-30T05:02:34;101476.31;;;1.31;100.00
58245;BME280;44550;43.864;25.986;2023-01-30T05:06:44;101476.63;;;1.21;100.00
58245;BME280;44550;43.864;25.986;2023-01-30T05:10:46;101471.94;;;1.13;100.00
58245;BME280;44550;43.864;25.986;2023-01-30T05:14:57;101476.13;;;0.97;100.00
58245;BME280;44550;43.864;25.986;2023-01-30T05:19:05;101477.63;;;0.93;100.00
58245;BME280;44550;43.864;25.986;2023-01-30T05:23:12;101476.72;;;0.92;100.00
58245;BME280;44550;43.864;25.986;2023-01-30T05:27:18;101478.88;;;0.85;100.00
58245;BME280;44550;43.864;25.986;2023-01-30T05:31:22;101478.78;;;0.83;100.00
58245;BME280;44550;43.864;25.986;2023-01-30T05:35:46;101471.84;;;0.97;100.00
58245;BME280;44550;43.864;25.986;2023-01-30T05:40:21;101479.31;;;1.07;100.00
58245;BME280;44550;43.864;25.986;2023-01-30T05:45:22;101473.44;;;0.95;100.00
58245;BME280;44550;43.864;25.986;2023-01-30T05:56:19;101479.38;;;1.09;100.00
58245;BME280;44550;43.864;25.986;2023-01-30T06:01:40;101486.09;;;1.22;100.00
58245;BME280;44550;43.864;25.986;2023-01-30T06:12:28;101464.66;;;1.06;100.00
58245;BME280;44550;43.864;25.986;2023-01-30T06:22:17;101472.03;;;0.85;100.00
58245;BME280;44550;43.864;25.986;2023-01-30T06:27:19;101473.34;;;0.79;100.00
58245;BME280;44550;43.864;25.986;2023-01-30T06:32:49;101470.22;;;0.99;100.00
58245;BME280;44550;43.864;25.986;2023-01-30T06:38:23;101466.50;;;1.09;100.00
58245;BME280;44550;43.864;25.986;2023-01-30T06:43:14;101467.47;;;1.11;100.00
58245;BME280;44550;43.864;25.986;2023-01-30T06:47:58;101468.22;;;0.93;100.00
58245;BME280;44550;43.864;25.986;2023-01-30T06:53:05;101463.94;;;0.94;100.00
58245;BME280;44550;43.864;25.986;2023-01-30T06:58:02;101464.66;;;1.06;100.00
58245;BME280;44550;43.864;25.986;2023-01-30T07:02:32;101428.38;;;1.18;100.00
58245;BME280;44550;43.864;25.986;2023-01-30T07:07:09;101476.09;;;1.26;100.00
58245;BME280;44550;43.864;25.986;2023-01-30T07:12:08;101483.53;;;1.22;100.00
58245;BME280;44550;43.864;25.986;2023-01-30T07:16:45;101486.03;;;1.20;100.00
58245;BME280;44550;43.864;25.986;2023-01-30T07:21:21;101484.97;;;1.16;100.00
58245;BME280;44550;43.864;25.986;2023-01-30T07:26:41;101479.66;;;1.13;100.00
58245;BME280;44550;43.864;25.986;2023-01-30T07:31:36;101482.75;;;1.08;100.00
58245;BME280;44550;43.864;25.986;2023-01-30T07:36:31;101479.38;;;1.24;100.00
58245;BME280;44550;43.864;25.986;2023-01-30T08:01:57;101470.16;;;2.07;100.00
58245;BME280;44550;43.864;25.986;2023-01-30T08:06:27;101463.91;;;2.19;100.00
58245;BME280;44550;43.864;25.986;2023-01-30T08:11:28;101470.81;;;1.87;100.00
58245;BME280;44550;43.864;25.986;2023-01-30T08:21:33;101446.16;;;1.92;100.00
58245;BME280;44550;43.864;25.986;2023-01-30T08:26:03;101470.16;;;2.07;100.00
58245;BME280;44550;43.864;25.986;2023-01-30T08:30:18;101471.16;;;1.93;100.00
58245;BME280;44550;43.864;25.986;2023-01-30T08:34:50;101469.34;;;2.25;100.00
58245;BME280;44550;43.864;25.986;2023-01-30T08:39:00;101445.41;;;2.11;100.00
58245;BME280;44550;43.864;25.986;2023-01-30T08:43:14;101463.47;;;2.27;100.00
58245;BME280;44550;43.864;25.986;2023-01-30T08:47:38;101459.63;;;2.19;100.00
58245;BME280;44550;43.864;25.986;2023-01-30T08:51:46;101447.84;;;2.24;100.00
58245;BME280;44550;43.864;25.986;2023-01-30T08:55:59;101446.13;;;2.25;100.00
58245;BME280;44550;43.864;25.986;2023-01-30T09:00:04;101445.31;;;2.42;100.00
58245;BME280;44550;43.864;25.986;2023-01-30T09:04:11;101417.34;;;2.33;100.00
58245;BME280;44550;43.864;25.986;2023-01-30T09:08:13;101438.19;;;2.54;100.00
58245;BME280;44550;43.864;25.986;2023-01-30T09:12:17;101437.72;;;2.62;100.00
58245;BME280;44550;43.864;25.986;2023-01-30T09:16:27;101431.47;;;2.58;100.00
58245;BME280;44550;43.864;25.986;2023-01-30T09:20:29;101433.00;;;2.54;100.00
58245;BME280;44550;43.864;25.986;2023-01-30T09:24:35;101429.88;;;2.26;100.00
58245;BME280;44550;43.864;25.986;2023-01-30T09:28:53;101415.34;;;1.95;100.00
58245;BME280;44550;43.864;25.986;2023-01-30T09:32:59;101413.09;;;2.18;100.00
58245;BME280;44550;43.864;25.986;2023-01-30T09:37:11;101402.28;;;2.08;100.00
58245;BME280;44550;43.864;25.986;2023-01-30T09:41:50;101405.97;;;2.30;100.00
58245;BME280;44550;43.864;25.986;2023-01-30T09:46:04;101407.03;;;2.17;100.00
58245;BME280;44550;43.864;25.986;2023-01-30T09:50:28;101400.53;;;2.07;100.00
58245;BME280;44550;43.864;25.986;2023-01-30T09:54:36;101394.09;;;1.83;100.00
58245;BME280;44550;43.864;25.986;2023-01-30T09:58:43;101364.28;;;1.72;100.00
58245;BME280;44550;43.864;25.986;2023-01-30T10:03:04;101379.41;;;1.82;100.00
58245;BME280;44550;43.864;25.986;2023-01-30T10:07:20;101374.59;;;1.88;100.00
58245;BME280;44550;43.864;25.986;2023-01-30T10:11:35;101368.06;;;1.78;100.00
58245;BME280;44550;43.864;25.986;2023-01-30T10:15:47;101341.34;;;1.76;100.00
58245;BME280;44550;43.864;25.986;2023-01-30T10:20:09;101346.72;;;1.81;100.00
58245;BME280;44550;43.864;25.986;2023-01-30T10:24:31;101339.09;;;1.66;100.00
58245;BME280;44550;43.864;25.986;2023-01-30T10:28:40;101330.88;;;1.57;100.00
58245;BME280;44550;43.864;25.986;2023-01-30T10:33:01;101310.72;;;1.33;100.00
58245;BME280;44550;43.864;25.986;2023-01-30T10:37:09;101297.13;;;1.20;100.00
58245;BME280;44550;43.864;25.986;2023-01-30T10:41:21;101309.03;;;1.17;100.00
58245;BME280;44550;43.864;25.986;2023-01-30T10:45:29;101258.06;;;0.64;100.00
58245;BME280;44550;43.864;25.986;2023-01-30T10:49:40;101305.53;;;1.01;100.00
58245;BME280;44550;43.864;25.986;2023-01-30T10:53:51;101294.72;;;0.91;100.00
58245;BME280;44550;43.864;25.986;2023-01-30T10:57:58;101288.88;;;0.94;100.00
58245;BME280;44550;43.864;25.986;2023-01-30T11:02:10;101277.59;;;0.92;100.00
58245;BME280;44550;43.864;25.986;2023-01-30T11:06:18;101269.09;;;0.93;100.00
58245;BME280;44550;43.864;25.986;2023-01-30T11:10:27;101262.81;;;1.04;100.00
58245;BME280;44550;43.864;25.986;2023-01-30T11:14:49;101250.09;;;1.07;100.00
58245;BME280;44550;43.864;25.986;2023-01-30T11:18:50;101249.44;;;0.95;100.00
58245;BME280;44550;43.864;25.986;2023-01-30T11:23:30;101238.75;;;1.04;100.00
58245;BME280;44550;43.864;25.986;2023-01-30T11:27:34;101235.78;;;0.96;100.00
58245;BME280;44550;43.864;25.986;2023-01-30T11:31:39;101228.50;;;1.05;100.00
58245;BME280;44550;43.864;25.986;2023-01-30T11:35:43;101217.81;;;0.98;100.00
58245;BME280;44550;43.864;25.986;2023-01-30T11:39:51;101212.91;;;1.02;100.00
58245;BME280;44550;43.864;25.986;2023-01-30T11:44:11;101218.00;;;1.17;100.00
58245;BME280;44550;43.864;25.986;2023-01-30T11:48:15;101213.88;;;1.04;100.00
58245;BME280;44550;43.864;25.986;2023-01-30T11:52:41;101172.50;;;0.68;100.00
58245;BME280;44550;43.864;25.986;2023-01-30T11:56:47;101175.97;;;0.69;100.00
58245;BME280;44550;43.864;25.986;2023-01-30T12:00:53;101196.34;;;0.81;100.00
58245;BME280;44550;43.864;25.986;2023-01-30T12:05:02;101188.47;;;0.94;100.00
58245;BME280;44550;43.864;25.986;2023-01-30T12:09:33;101188.66;;;0.66;100.00
58245;BME280;44550;43.864;25.986;2023-01-30T12:13:39;101175.75;;;0.81;100.00
58245;BME280;44550;43.864;25.986;2023-01-30T12:17:58;101173.88;;;0.78;100.00
58245;BME280;44550;43.864;25.986;2023-01-30T12:22:15;101150.31;;;0.70;100.00
58245;BME280;44550;43.864;25.986;2023-01-30T12:26:20;101156.84;;;0.64;100.00
58245;BME280;44550;43.864;25.986;2023-01-30T12:30:31;101156.50;;;0.74;100.00
58245;BME280;44550;43.864;25.986;2023-01-30T12:34:37;101156.63;;;0.44;100.00
58245;BME280;44550;43.864;25.986;2023-01-30T12:38:55;101154.56;;;0.54;100.00
58245;BME280;44550;43.864;25.986;2023-01-30T12:43:12;101120.47;;;0.41;100.00
58245;BME280;44550;43.864;25.986;2023-01-30T12:47:40;101144.63;;;0.60;100.00
58245;BME280;44550;43.864;25.986;2023-01-30T12:52:02;101139.03;;;0.52;100.00
58245;BME280;44550;43.864;25.986;2023-01-30T12:56:29;101126.25;;;0.37;100.00
58245;BME280;44550;43.864;25.986;2023-01-30T13:00:50;101128.03;;;0.71;100.00
58245;BME280;44550;43.864;25.986;2023-01-30T13:05:09;101112.34;;;0.83;100.00
58245;BME280;44550;43.864;25.986;2023-01-30T13:09:38;101105.53;;;0.83;100.00
58245;BME280;44550;43.864;25.986;2023-01-30T13:13:50;101103.41;;;0.76;100.00
58245;BME280;44550;43.864;25.986;2023-01-30T13:18:03;101096.50;;;0.75;100.00
58245;BME280;44550;43.864;25.986;2023-01-30T13:22:18;101090.06;;;0.83;100.00
58245;BME280;44550;43.864;25.986;2023-01-30T13:26:28;101095.78;;;0.78;100.00
58245;BME280;44550;43.864;25.986;2023-01-30T13:30:34;101097.28;;;1.07;100.00
58245;BME280;44550;43.864;25.986;2023-01-30T13:34:38;101093.63;;;1.20;100.00
58245;BME280;44550;43.864;25.986;2023-01-30T13:38:50;101083.69;;;1.27;100.00
58245;BME280;44550;43.864;25.986;2023-01-30T13:43:05;101073.97;;;1.22;100.00
58245;BME280;44550;43.864;25.986;2023-01-30T13:47:21;101068.09;;;1.42;100.00
58245;BME280;44550;43.864;25.986;2023-01-30T13:51:35;101069.28;;;1.49;100.00
58245;BME280;44550;43.864;25.986;2023-01-30T13:55:44;101065.91;;;1.50;100.00
58245;BME280;44550;43.864;25.986;2023-01-30T14:00:19;101050.31;;;1.47;100.00
58245;BME280;44550;43.864;25.986;2023-01-30T14:04:48;101055.00;;;1.55;100.00
58245;BME280;44550;43.864;25.986;2023-01-30T14:08:53;101049.63;;;1.69;100.00
58245;BME280;44550;43.864;25.986;2023-01-30T14:13:07;101049.41;;;1.64;100.00
58245;BME280;44550;43.864;25.986;2023-01-30T14:17:15;101046.78;;;1.62;100.00
58245;BME280;44550;43.864;25.986;2023-01-30T14:21:25;101046.69;;;1.61;100.00
58245;BME280;44550;43.864;25.986;2023-01-30T14:25:47;101038.06;;;1.60;100.00
58245;BME280;44550;43.864;25.986;2023-01-30T14:30:31;101041.09;;;1.70;100.00
58245;BME280;44550;43.864;25.986;2023-01-30T14:34:47;101044.63;;;1.72;100.00
58245;BME280;44550;43.864;25.986;2023-01-30T14:38:57;101038.06;;;1.78;100.00
58245;BME280;44550;43.864;25.986;2023-01-30T14:48:25;101008.53;;;1.72;100.00
58245;BME280;44550;43.864;25.986;2023-01-30T14:52:39;100997.47;;;1.74;100.00
58245;BME280;44550;43.864;25.986;2023-01-30T14:56:45;100952.53;;;1.50;100.00
58245;BME280;44550;43.864;25.986;2023-01-30T15:00:59;101002.09;;;1.81;100.00
58245;BME280;44550;43.864;25.986;2023-01-30T15:05:13;100999.81;;;1.87;100.00
58245;BME280;44550;43.864;25.986;2023-01-30T15:09:18;100967.28;;;1.72;100.00
58245;BME280;44550;43.864;25.986;2023-01-30T15:13:46;100984.44;;;1.89;100.00
58245;BME280;44550;43.864;25.986;2023-01-30T15:18:03;100987.75;;;1.86;100.00
58245;BME280;44550;43.864;25.986;2023-01-30T15:22:18;100973.88;;;1.84;100.00
58245;BME280;44550;43.864;25.986;2023-01-30T15:26:31;100977.16;;;1.80;100.00
58245;BME280;44550;43.864;25.986;2023-01-30T15:30:52;100974.38;;;1.76;100.00
58245;BME280;44550;43.864;25.986;2023-01-30T15:35:19;100966.63;;;1.76;100.00
58245;BME280;44550;43.864;25.986;2023-01-30T15:39:49;100959.16;;;1.62;100.00
58245;BME280;44550;43.864;25.986;2023-01-30T15:44:33;100951.41;;;1.82;100.00
58245;BME280;44550;43.864;25.986;2023-01-30T15:49:01;100953.66;;;1.74;100.00
58245;BME280;44550;43.864;25.986;2023-01-30T15:59:25;100950.25;;;1.56;100.00
58245;BME280;44550;43.864;25.986;2023-01-30T16:03:29;100948.03;;;1.46;100.00
58245;BME280;44550;43.864;25.986;2023-01-30T16:07:35;100946.66;;;1.34;100.00
58245;BME280;44550;43.864;25.986;2023-01-30T16:11:38;100930.56;;;1.21;100.00
58245;BME280;44550;43.864;25.986;2023-01-30T16:15:45;100933.19;;;1.22;100.00
58245;BME280;44550;43.864;25.986;2023-01-30T16:19:50;100927.97;;;1.21;100.00
58245;BME280;44550;43.864;25.986;2023-01-30T16:23:57;100931.88;;;1.12;100.00
58245;BME280;44550;43.864;25.986;2023-01-30T16:28:01;100915.00;;;1.19;100.00
58245;BME280;44550;43.864;25.986;2023-01-30T16:32:13;100913.78;;;1.11;100.00
58245;BME280;44550;43.864;25.986;2023-01-30T16:36:30;100912.44;;;1.19;100.00
58245;BME280;44550;43.864;25.986;2023-01-30T16:40:43;100910.09;;;1.24;100.00
58245;BME280;44550;43.864;25.986;2023-01-30T16:44:43;100909.38;;;1.26;100.00
58245;BME280;44550;43.864;25.986;2023-01-30T16:48:48;100902.66;;;1.30;100.00
58245;BME280;44550;43.864;25.986;2023-01-30T16:52:52;100901.53;;;1.25;100.00
58245;BME280;44550;43.864;25.986;2023-01-30T16:56:57;100898.97;;;1.25;100.00
58245;BME280;44550;43.864;25.986;2023-01-30T17:00:59;100895.66;;;1.27;100.00
58245;BME280;44550;43.864;25.986;2023-01-30T17:05:18;100860.38;;;1.07;100.00
58245;BME280;44550;43.864;25.986;2023-01-30T17:09:51;100883.84;;;1.13;100.00
58245;BME280;44550;43.864;25.986;2023-01-30T17:14:18;100880.75;;;1.20;100.00
58245;BME280;44550;43.864;25.986;2023-01-30T17:18:36;100879.72;;;1.16;100.00
58245;BME280;44550;43.864;25.986;2023-01-30T17:23:00;100883.06;;;1.15;100.00
58245;BME280;44550;43.864;25.986;2023-01-30T17:27:16;100857.50;;;1.01;100.00
58245;BME280;44550;43.864;25.986;2023-01-30T17:31:18;100849.97;;;1.05;100.00
58245;BME280;44550;43.864;25.986;2023-01-30T17:35:19;100871.34;;;1.03;100.00
58245;BME280;44550;43.864;25.986;2023-01-30T17:39:32;100858.91;;;0.94;100.00
58245;BME280;44550;43.864;25.986;2023-01-30T17:43:36;100859.06;;;0.97;100.00
58245;BME280;44550;43.864;25.986;2023-01-30T17:47:43;100860.50;;;0.92;100.00
58245;BME280;44550;43.864;25.986;2023-01-30T17:51:52;100849.38;;;0.74;100.00
58245;BME280;44550;43.864;25.986;2023-01-30T17:56:03;100848.84;;;0.81;100.00
58245;BME280;44550;43.864;25.986;2023-01-30T18:00:18;100843.25;;;0.72;100.00
58245;BME280;44550;43.864;25.986;2023-01-30T18:04:27;100842.78;;;0.62;100.00
58245;BME280;44550;43.864;25.986;2023-01-30T18:08:29;100835.97;;;0.45;100.00
58245;BME280;44550;43.864;25.986;2023-01-30T18:12:35;100809.78;;;0.36;100.00
58245;BME280;44550;43.864;25.986;2023-01-30T18:16:40;100827.66;;;0.51;100.00
58245;BME280;44550;43.864;25.986;2023-01-30T18:20:48;100826.63;;;0.65;100.00
58245;BME280;44550;43.864;25.986;2023-01-30T18:24:59;100820.91;;;0.70;100.00
58245;BME280;44550;43.864;25.986;2023-01-30T18:29:03;100814.78;;;0.68;100.00
58245;BME280;44550;43.864;25.986;2023-01-30T18:33:10;100815.59;;;0.67;100.00
58245;BME280;44550;43.864;25.986;2023-01-30T18:37:18;100814.72;;;0.67;100.00
58245;BME280;44550;43.864;25.986;2023-01-30T18:41:41;100807.66;;;0.45;100.00
58245;BME280;44550;43.864;25.986;2023-01-30T18:46:00;100803.69;;;0.52;100.00
58245;BME280;44550;43.864;25.986;2023-01-30T18:50:14;100773.78;;;0.36;100.00
58245;BME280;44550;43.864;25.986;2023-01-30T18:54:29;100786.94;;;0.42;100.00
58245;BME280;44550;43.864;25.986;2023-01-30T18:58:35;100800.25;;;0.51;100.00
58245;BME280;44550;43.864;25.986;2023-01-30T19:02:44;100806.78;;;0.44;100.00
58245;BME280;44550;43.864;25.986;2023-01-30T19:07:06;100782.81;;;0.45;100.00
58245;BME280;44550;43.864;25.986;2023-01-30T19:11:18;100791.25;;;0.43;100.00
58245;BME280;44550;43.864;25.986;2023-01-30T19:15:45;100781.72;;;0.40;100.00
58245;BME280;44550;43.864;25.986;2023-01-30T19:19:53;100784.88;;;0.35;100.00
58245;BME280;44550;43.864;25.986;2023-01-30T19:24:05;100777.97;;;0.34;100.00
58245;BME280;44550;43.864;25.986;2023-01-30T19:28:10;100787.03;;;0.43;100.00
58245;BME280;44550;43.864;25.986;2023-01-30T19:32:18;100778.91;;;0.36;100.00
58245;BME280;44550;43.864;25.986;2023-01-30T19:36:33;100782.66;;;0.25;100.00
58245;BME280;44550;43.864;25.986;2023-01-30T19:40:39;100775.84;;;0.25;100.00
58245;BME280;44550;43.864;25.986;2023-01-30T19:44:45;100764.47;;;0.20;100.00
58245;BME280;44550;43.864;25.986;2023-01-30T19:48:49;100774.81;;;0.21;100.00
58245;BME280;44550;43.864;25.986;2023-01-30T19:52:55;100766.50;;;0.27;100.00
58245;BME280;44550;43.864;25.986;2023-01-30T19:57:01;100762.25;;;0.28;100.00
58245;BME280;44550;43.864;25.986;2023-01-30T20:01:08;100771.50;;;0.24;100.00
58245;BME280;44550;43.864;25.986;2023-01-30T20:05:11;100725.50;;;-0.06;100.00
58245;BME280;44550;43.864;25.986;2023-01-30T20:09:27;100743.75;;;0.17;100.00
58245;BME280;44550;43.864;25.986;2023-01-30T20:13:32;100684.66;;;-0.17;100.00
58245;BME280;44550;43.864;25.986;2023-01-30T20:17:39;100739.38;;;0.16;100.00
58245;BME280;44550;43.864;25.986;2023-01-30T20:21:39;100720.28;;;0.11;100.00
58245;BME280;44550;43.864;25.986;2023-01-30T20:26:09;100738.13;;;0.26;100.00
58245;BME280;44550;43.864;25.986;2023-01-30T20:31:23;100737.84;;;0.19;100.00
58245;BME280;44550;43.864;25.986;2023-01-30T20:36:56;100729.69;;;0.10;100.00
58245;BME280;44550;43.864;25.986;2023-01-30T20:52:57;100705.66;;;0.10;100.00
58245;BME280;44550;43.864;25.986;2023-01-30T20:57:34;100662.94;;;-0.06;100.00
58245;BME280;44550;43.864;25.986;2023-01-30T21:01:49;100695.09;;;0.21;100.00
58245;BME280;44550;43.864;25.986;2023-01-30T21:05:56;100696.78;;;0.21;100.00
58245;BME280;44550;43.864;25.986;2023-01-30T21:10:24;100692.66;;;0.25;100.00
58245;BME280;44550;43.864;25.986;2023-01-30T21:14:31;100691.94;;;0.27;100.00
58245;BME280;44550;43.864;25.986;2023-01-30T21:23:12;100677.88;;;0.38;100.00
58245;BME280;44550;43.864;25.986;2023-01-30T21:27:16;100674.34;;;0.36;100.00
58245;BME280;44550;43.864;25.986;2023-01-30T21:31:28;100674.88;;;0.29;100.00
58245;BME280;44550;43.864;25.986;2023-01-30T21:35:48;100676.41;;;0.43;100.00
58245;BME280;44550;43.864;25.986;2023-01-30T21:39:53;100674.63;;;0.42;100.00
58245;BME280;44550;43.864;25.986;2023-01-30T21:44:22;100670.03;;;0.35;100.00
58245;BME280;44550;43.864;25.986;2023-01-30T21:48:42;100660.59;;;0.36;100.00
58245;BME280;44550;43.864;25.986;2023-01-30T21:52:46;100651.19;;;0.36;100.00
58245;BME280;44550;43.864;25.986;2023-01-30T21:56:50;100650.25;;;0.34;100.00
58245;BME280;44550;43.864;25.986;2023-01-30T22:01:04;100615.09;;;0.15;100.00
58245;BME280;44550;43.864;25.986;2023-01-30T22:05:27;100647.88;;;0.39;100.00
58245;BME280;44550;43.864;25.986;2023-01-30T22:09:54;100648.03;;;0.42;100.00
58245;BME280;44550;43.864;25.986;2023-01-30T22:14:15;100653.47;;;0.48;100.00
58245;BME280;44550;43.864;25.986;2023-01-30T22:18:31;100645.00;;;0.51;100.00
58245;BME280;44550;43.864;25.986;2023-01-30T22:22:55;100638.50;;;0.59;100.00
58245;BME280;44550;43.864;25.986;2023-01-30T22:27:12;100572.41;;;0.19;100.00
58245;BME280;44550;43.864;25.986;2023-01-30T22:31:30;100647.34;;;0.64;100.00
58245;BME280;44550;43.864;25.986;2023-01-30T22:36:27;100640.69;;;0.69;100.00
58245;BME280;44550;43.864;25.986;2023-01-30T22:41:03;100641.69;;;0.73;100.00
58245;BME280;44550;43.864;25.986;2023-01-30T22:45:21;100635.75;;;0.74;100.00
58245;BME280;44550;43.864;25.986;2023-01-30T22:49:24;100603.50;;;0.62;100.00
58245;BME280;44550;43.864;25.986;2023-01-30T22:53:50;100630.25;;;0.85;100.00
58245;BME280;44550;43.864;25.986;2023-01-30T22:58:12;100632.09;;;0.88;100.00
58245;BME280;44550;43.864;25.986;2023-01-30T23:02:22;100587.28;;;0.63;100.00
58245;BME280;44550;43.864;25.986;2023-01-30T23:06:33;100630.13;;;0.82;100.00
58245;BME280;44550;43.864;25.986;2023-01-30T23:10:45;100625.78;;;0.81;100.00
58245;BME280;44550;43.864;25.986;2023-01-30T23:14:56;100601.03;;;0.64;100.00
58245;BME280;44550;43.864;25.986;2023-01-30T23:19:01;100617.19;;;0.81;100.00
58245;BME280;44550;43.864;25.986;2023-01-30T23:23:11;100618.47;;;0.71;100.00
58245;BME280;44550;43.864;25.986;2023-01-30T23:27:27;100612.66;;;0.75;100.00